sensor_id;sensor_type;location;lat;lon;timestamp;P1;durP1;ratioP1;P2;durP2;ratioP2
66298;SDS011;53098;47.658;8.578;2022-08-16T00:00:32;5.75;;;1.23;;
66298;SDS011;53098;47.658;8.578;2022-08-16T00:02:57;2.95;;;1.30;;
66298;SDS011;53098;47.658;8.578;2022-08-16T00:05:24;3.60;;;1.43;;
66298;SDS011;53098;47.658;8.578;2022-08-16T00:07:50;3.50;;;1.33;;
66298;SDS011;53098;47.658;8.578;2022-08-16T00:10:16;2.85;;;1.48;;
66298;SDS011;53098;47.658;8.578;2022-08-16T00:12:42;2.10;;;1.30;;
66298;SDS011;53098;47.658;8.578;2022-08-16T00:15:11;1.70;;;1.10;;
66298;SDS011;53098;47.658;8.578;2022-08-16T00:17:36;3.15;;;1.35;;
66298;SDS011;53098;47.658;8.578;2022-08-16T00:20:02;2.53;;;1.30;;
66298;SDS011;53098;47.658;8.578;2022-08-16T00:22:28;2.83;;;1.38;;
66298;SDS011;53098;47.658;8.578;2022-08-16T00:24:53;3.37;;;1.30;;
66298;SDS011;53098;47.658;8.578;2022-08-16T00:27:18;3.05;;;1.33;;
66298;SDS011;53098;47.658;8.578;2022-08-16T00:29:44;2.35;;;1.20;;
66298;SDS011;53098;47.658;8.578;2022-08-16T00:32:09;3.47;;;1.30;;
66298;SDS011;53098;47.658;8.578;2022-08-16T00:34:35;3.75;;;1.15;;
66298;SDS011;53098;47.658;8.578;2022-08-16T00:37:01;3.53;;;1.27;;
66298;SDS011;53098;47.658;8.578;2022-08-16T00:39:26;2.67;;;1.13;;
66298;SDS011;53098;47.658;8.578;2022-08-16T00:41:51;2.30;;;1.20;;
66298;SDS011;53098;47.658;8.578;2022-08-16T00:44:18;2.47;;;1.27;;
66298;SDS011;53098;47.658;8.578;2022-08-16T00:46:53;2.33;;;1.20;;
66298;SDS011;53098;47.658;8.578;2022-08-16T00:49:20;4.80;;;1.23;;
66298;SDS011;53098;47.658;8.578;2022-08-16T00:51:46;2.40;;;1.20;;
66298;SDS011;53098;47.658;8.578;2022-08-16T00:54:12;2.67;;;1.40;;
66298;SDS011;53098;47.658;8.578;2022-08-16T00:56:38;3.55;;;1.35;;
66298;SDS011;53098;47.658;8.578;2022-08-16T00:59:05;2.83;;;1.35;;
66298;SDS011;53098;47.658;8.578;2022-08-16T01:01:31;3.28;;;1.20;;
66298;SDS011;53098;47.658;8.578;2022-08-16T01:03:56;2.80;;;1.43;;
66298;SDS011;53098;47.658;8.578;2022-08-16T01:06:21;2.40;;;1.35;;
66298;SDS011;53098;47.658;8.578;2022-08-16T01:08:47;2.60;;;1.20;;
66298;SDS011;53098;47.658;8.578;2022-08-16T01:11:13;3.97;;;1.30;;
66298;SDS011;53098;47.658;8.578;2022-08-16T01:13:38;4.28;;;1.45;;
66298;SDS011;53098;47.658;8.578;2022-08-16T01:18:31;3.83;;;1.37;;
66298;SDS011;53098;47.658;8.578;2022-08-16T01:21:22;4.10;;;1.10;;
66298;SDS011;53098;47.658;8.578;2022-08-16T01:26:13;2.90;;;1.38;;
66298;SDS011;53098;47.658;8.578;2022-08-16T01:28:41;2.83;;;1.40;;
66298;SDS011;53098;47.658;8.578;2022-08-16T01:31:08;1.73;;;1.08;;
66298;SDS011;53098;47.658;8.578;2022-08-16T01:33:34;2.70;;;1.20;;
66298;SDS011;53098;47.658;8.578;2022-08-16T01:36:04;2.73;;;1.17;;
66298;SDS011;53098;47.658;8.578;2022-08-16T01:38:34;2.60;;;1.30;;
66298;SDS011;53098;47.658;8.578;2022-08-16T01:43:25;2.40;;;1.10;;
66298;SDS011;53098;47.658;8.578;2022-08-16T01:45:55;3.87;;;1.37;;
66298;SDS011;53098;47.658;8.578;2022-08-16T01:48:22;3.90;;;1.10;;
66298;SDS011;53098;47.658;8.578;2022-08-16T01:50:48;3.00;;;1.60;;
66298;SDS011;53098;47.658;8.578;2022-08-16T01:53:15;2.50;;;1.30;;
66298;SDS011;53098;47.658;8.578;2022-08-16T01:55:40;2.03;;;1.17;;
66298;SDS011;53098;47.658;8.578;2022-08-16T01:58:05;3.53;;;1.27;;
66298;SDS011;53098;47.658;8.578;2022-08-16T02:00:31;4.57;;;1.57;;
66298;SDS011;53098;47.658;8.578;2022-08-16T02:02:56;3.30;;;1.05;;
66298;SDS011;53098;47.658;8.578;2022-08-16T02:05:21;5.37;;;1.20;;
66298;SDS011;53098;47.658;8.578;2022-08-16T02:07:46;4.37;;;1.60;;
66298;SDS011;53098;47.658;8.578;2022-08-16T02:10:12;2.70;;;1.30;;
66298;SDS011;53098;47.658;8.578;2022-08-16T02:12:37;3.13;;;1.50;;
66298;SDS011;53098;47.658;8.578;2022-08-16T02:15:03;2.67;;;1.30;;
66298;SDS011;53098;47.658;8.578;2022-08-16T02:17:29;3.42;;;1.40;;
66298;SDS011;53098;47.658;8.578;2022-08-16T02:19:54;3.17;;;1.25;;
66298;SDS011;53098;47.658;8.578;2022-08-16T02:22:20;3.22;;;1.40;;
66298;SDS011;53098;47.658;8.578;2022-08-16T02:24:46;3.17;;;1.33;;
66298;SDS011;53098;47.658;8.578;2022-08-16T02:27:12;4.65;;;1.33;;
66298;SDS011;53098;47.658;8.578;2022-08-16T02:29:37;2.95;;;1.45;;
66298;SDS011;53098;47.658;8.578;2022-08-16T02:32:03;2.28;;;1.25;;
66298;SDS011;53098;47.658;8.578;2022-08-16T02:34:29;2.67;;;1.30;;
66298;SDS011;53098;47.658;8.578;2022-08-16T02:36:54;3.40;;;1.38;;
66298;SDS011;53098;47.658;8.578;2022-08-16T02:39:19;2.77;;;1.30;;
66298;SDS011;53098;47.658;8.578;2022-08-16T02:41:46;3.87;;;1.17;;
66298;SDS011;53098;47.658;8.578;2022-08-16T02:44:11;4.50;;;1.25;;
66298;SDS011;53098;47.658;8.578;2022-08-16T02:46:37;2.63;;;1.20;;
66298;SDS011;53098;47.658;8.578;2022-08-16T02:49:03;4.00;;;1.57;;
66298;SDS011;53098;47.658;8.578;2022-08-16T02:51:28;3.17;;;1.50;;
66298;SDS011;53098;47.658;8.578;2022-08-16T02:53:53;3.42;;;1.70;;
66298;SDS011;53098;47.658;8.578;2022-08-16T02:56:19;2.80;;;1.40;;
66298;SDS011;53098;47.658;8.578;2022-08-16T02:58:45;2.45;;;1.30;;
66298;SDS011;53098;47.658;8.578;2022-08-16T03:01:11;13.65;;;1.95;;
66298;SDS011;53098;47.658;8.578;2022-08-16T03:03:36;3.97;;;1.70;;
66298;SDS011;53098;47.658;8.578;2022-08-16T03:06:01;4.10;;;1.73;;
66298;SDS011;53098;47.658;8.578;2022-08-16T03:08:27;5.18;;;1.70;;
66298;SDS011;53098;47.658;8.578;2022-08-16T03:10:52;3.38;;;1.60;;
66298;SDS011;53098;47.658;8.578;2022-08-16T03:13:18;3.67;;;1.60;;
66298;SDS011;53098;47.658;8.578;2022-08-16T03:15:43;5.90;;;1.52;;
66298;SDS011;53098;47.658;8.578;2022-08-16T03:18:09;4.05;;;1.70;;
66298;SDS011;53098;47.658;8.578;2022-08-16T03:20:34;2.80;;;1.50;;
66298;SDS011;53098;47.658;8.578;2022-08-16T03:23:00;2.53;;;1.50;;
66298;SDS011;53098;47.658;8.578;2022-08-16T03:25:26;4.68;;;2.13;;
66298;SDS011;53098;47.658;8.578;2022-08-16T03:27:51;4.07;;;1.50;;
66298;SDS011;53098;47.658;8.578;2022-08-16T03:30:18;4.88;;;2.00;;
66298;SDS011;53098;47.658;8.578;2022-08-16T03:32:45;3.15;;;1.63;;
66298;SDS011;53098;47.658;8.578;2022-08-16T03:35:10;4.22;;;2.10;;
66298;SDS011;53098;47.658;8.578;2022-08-16T03:37:35;3.87;;;1.50;;
66298;SDS011;53098;47.658;8.578;2022-08-16T03:40:01;6.20;;;1.77;;
66298;SDS011;53098;47.658;8.578;2022-08-16T03:42:26;5.55;;;1.90;;
66298;SDS011;53098;47.658;8.578;2022-08-16T03:44:52;5.90;;;2.00;;
66298;SDS011;53098;47.658;8.578;2022-08-16T03:47:17;4.03;;;1.85;;
66298;SDS011;53098;47.658;8.578;2022-08-16T03:49:42;4.53;;;1.90;;
66298;SDS011;53098;47.658;8.578;2022-08-16T03:52:08;4.82;;;2.08;;
66298;SDS011;53098;47.658;8.578;2022-08-16T03:54:33;8.63;;;2.03;;
66298;SDS011;53098;47.658;8.578;2022-08-16T03:56:58;3.67;;;1.57;;
66298;SDS011;53098;47.658;8.578;2022-08-16T03:59:23;3.73;;;1.70;;
66298;SDS011;53098;47.658;8.578;2022-08-16T04:01:49;5.88;;;1.90;;
66298;SDS011;53098;47.658;8.578;2022-08-16T04:04:14;4.77;;;1.60;;
66298;SDS011;53098;47.658;8.578;2022-08-16T04:06:39;4.53;;;1.80;;
66298;SDS011;53098;47.658;8.578;2022-08-16T04:09:05;3.57;;;1.80;;
66298;SDS011;53098;47.658;8.578;2022-08-16T04:11:30;4.97;;;2.00;;
66298;SDS011;53098;47.658;8.578;2022-08-16T04:13:55;4.10;;;1.90;;
66298;SDS011;53098;47.658;8.578;2022-08-16T04:16:21;4.20;;;1.90;;
66298;SDS011;53098;47.658;8.578;2022-08-16T04:18:46;4.83;;;1.87;;
66298;SDS011;53098;47.658;8.578;2022-08-16T04:21:11;4.10;;;1.70;;
66298;SDS011;53098;47.658;8.578;2022-08-16T04:23:37;3.85;;;1.60;;
66298;SDS011;53098;47.658;8.578;2022-08-16T04:26:02;4.90;;;2.00;;
66298;SDS011;53098;47.658;8.578;2022-08-16T04:28:27;5.13;;;1.92;;
66298;SDS011;53098;47.658;8.578;2022-08-16T04:30:53;5.93;;;2.05;;
66298;SDS011;53098;47.658;8.578;2022-08-16T04:33:18;4.93;;;1.83;;
66298;SDS011;53098;47.658;8.578;2022-08-16T04:35:43;4.00;;;1.90;;
66298;SDS011;53098;47.658;8.578;2022-08-16T04:38:09;4.73;;;1.80;;
66298;SDS011;53098;47.658;8.578;2022-08-16T04:40:34;3.23;;;1.60;;
66298;SDS011;53098;47.658;8.578;2022-08-16T04:42:59;4.27;;;1.63;;
66298;SDS011;53098;47.658;8.578;2022-08-16T04:45:25;5.03;;;2.17;;
66298;SDS011;53098;47.658;8.578;2022-08-16T04:47:50;3.50;;;1.55;;
66298;SDS011;53098;47.658;8.578;2022-08-16T04:52:42;4.57;;;2.10;;
66298;SDS011;53098;47.658;8.578;2022-08-16T04:55:09;5.88;;;2.05;;
66298;SDS011;53098;47.658;8.578;2022-08-16T04:57:35;5.50;;;1.75;;
66298;SDS011;53098;47.658;8.578;2022-08-16T05:00:00;6.65;;;2.00;;
66298;SDS011;53098;47.658;8.578;2022-08-16T05:02:25;3.40;;;1.90;;
66298;SDS011;53098;47.658;8.578;2022-08-16T05:04:51;5.13;;;2.70;;
66298;SDS011;53098;47.658;8.578;2022-08-16T05:07:16;5.47;;;2.20;;
66298;SDS011;53098;47.658;8.578;2022-08-16T05:09:41;4.67;;;2.10;;
66298;SDS011;53098;47.658;8.578;2022-08-16T05:12:07;6.60;;;2.17;;
66298;SDS011;53098;47.658;8.578;2022-08-16T05:14:32;4.70;;;2.10;;
66298;SDS011;53098;47.658;8.578;2022-08-16T05:16:57;5.03;;;2.00;;
66298;SDS011;53098;47.658;8.578;2022-08-16T05:19:22;5.83;;;2.13;;
66298;SDS011;53098;47.658;8.578;2022-08-16T05:21:48;6.07;;;2.30;;
66298;SDS011;53098;47.658;8.578;2022-08-16T05:24:13;5.03;;;2.40;;
66298;SDS011;53098;47.658;8.578;2022-08-16T05:26:38;6.00;;;2.43;;
66298;SDS011;53098;47.658;8.578;2022-08-16T05:29:04;4.43;;;2.00;;
66298;SDS011;53098;47.658;8.578;2022-08-16T05:31:29;7.00;;;2.60;;
66298;SDS011;53098;47.658;8.578;2022-08-16T05:33:54;6.03;;;2.30;;
66298;SDS011;53098;47.658;8.578;2022-08-16T05:36:20;6.10;;;2.67;;
66298;SDS011;53098;47.658;8.578;2022-08-16T05:38:46;8.52;;;2.70;;
66298;SDS011;53098;47.658;8.578;2022-08-16T05:41:11;5.20;;;2.38;;
66298;SDS011;53098;47.658;8.578;2022-08-16T05:43:36;8.23;;;2.67;;
66298;SDS011;53098;47.658;8.578;2022-08-16T05:46:02;5.33;;;2.47;;
66298;SDS011;53098;47.658;8.578;2022-08-16T05:48:27;4.68;;;2.25;;
66298;SDS011;53098;47.658;8.578;2022-08-16T05:50:52;6.40;;;2.28;;
66298;SDS011;53098;47.658;8.578;2022-08-16T05:53:18;5.00;;;2.60;;
66298;SDS011;53098;47.658;8.578;2022-08-16T05:55:43;11.63;;;3.10;;
66298;SDS011;53098;47.658;8.578;2022-08-16T05:58:08;5.90;;;2.90;;
66298;SDS011;53098;47.658;8.578;2022-08-16T06:00:34;6.50;;;3.58;;
66298;SDS011;53098;47.658;8.578;2022-08-16T06:02:59;7.63;;;3.33;;
66298;SDS011;53098;47.658;8.578;2022-08-16T06:05:25;9.10;;;3.50;;
66298;SDS011;53098;47.658;8.578;2022-08-16T06:07:50;8.50;;;3.90;;
66298;SDS011;53098;47.658;8.578;2022-08-16T06:10:16;8.20;;;3.57;;
66298;SDS011;53098;47.658;8.578;2022-08-16T06:12:41;7.53;;;3.97;;
66298;SDS011;53098;47.658;8.578;2022-08-16T06:15:08;6.60;;;3.25;;
66298;SDS011;53098;47.658;8.578;2022-08-16T06:17:34;9.27;;;3.92;;
66298;SDS011;53098;47.658;8.578;2022-08-16T06:19:59;9.13;;;3.70;;
66298;SDS011;53098;47.658;8.578;2022-08-16T06:22:24;9.43;;;4.57;;
66298;SDS011;53098;47.658;8.578;2022-08-16T06:24:49;9.40;;;4.20;;
66298;SDS011;53098;47.658;8.578;2022-08-16T06:27:15;8.53;;;4.50;;
66298;SDS011;53098;47.658;8.578;2022-08-16T06:29:40;9.85;;;4.53;;
66298;SDS011;53098;47.658;8.578;2022-08-16T06:32:06;9.97;;;3.97;;
66298;SDS011;53098;47.658;8.578;2022-08-16T06:34:31;8.67;;;4.33;;
66298;SDS011;53098;47.658;8.578;2022-08-16T06:36:56;8.73;;;3.90;;
66298;SDS011;53098;47.658;8.578;2022-08-16T06:39:21;9.30;;;4.03;;
66298;SDS011;53098;47.658;8.578;2022-08-16T06:41:47;7.30;;;3.63;;
66298;SDS011;53098;47.658;8.578;2022-08-16T06:44:12;9.63;;;4.83;;
66298;SDS011;53098;47.658;8.578;2022-08-16T06:46:38;8.20;;;3.85;;
66298;SDS011;53098;47.658;8.578;2022-08-16T06:49:05;7.65;;;3.78;;
66298;SDS011;53098;47.658;8.578;2022-08-16T06:51:31;7.35;;;3.30;;
66298;SDS011;53098;47.658;8.578;2022-08-16T06:53:57;7.60;;;3.60;;
66298;SDS011;53098;47.658;8.578;2022-08-16T06:56:22;8.60;;;3.50;;
66298;SDS011;53098;47.658;8.578;2022-08-16T06:58:47;9.03;;;3.70;;
66298;SDS011;53098;47.658;8.578;2022-08-16T07:01:13;6.93;;;3.30;;
66298;SDS011;53098;47.658;8.578;2022-08-16T07:03:38;7.70;;;3.40;;
66298;SDS011;53098;47.658;8.578;2022-08-16T07:06:04;8.80;;;3.40;;
66298;SDS011;53098;47.658;8.578;2022-08-16T07:08:29;8.18;;;3.35;;
66298;SDS011;53098;47.658;8.578;2022-08-16T07:10:55;10.13;;;3.40;;
66298;SDS011;53098;47.658;8.578;2022-08-16T07:13:20;6.72;;;2.88;;
66298;SDS011;53098;47.658;8.578;2022-08-16T07:15:46;7.47;;;3.38;;
66298;SDS011;53098;47.658;8.578;2022-08-16T07:18:11;7.00;;;3.35;;
66298;SDS011;53098;47.658;8.578;2022-08-16T07:20:37;6.72;;;3.10;;
66298;SDS011;53098;47.658;8.578;2022-08-16T07:23:04;6.28;;;2.88;;
66298;SDS011;53098;47.658;8.578;2022-08-16T07:25:29;6.85;;;3.35;;
66298;SDS011;53098;47.658;8.578;2022-08-16T07:27:55;5.03;;;2.42;;
66298;SDS011;53098;47.658;8.578;2022-08-16T07:30:20;6.75;;;2.83;;
66298;SDS011;53098;47.658;8.578;2022-08-16T07:32:45;7.45;;;2.83;;
66298;SDS011;53098;47.658;8.578;2022-08-16T07:35:11;5.63;;;2.20;;
66298;SDS011;53098;47.658;8.578;2022-08-16T07:37:36;10.13;;;2.67;;
66298;SDS011;53098;47.658;8.578;2022-08-16T07:40:02;5.90;;;2.47;;
66298;SDS011;53098;47.658;8.578;2022-08-16T07:42:28;6.07;;;2.40;;
66298;SDS011;53098;47.658;8.578;2022-08-16T07:44:53;5.88;;;2.22;;
66298;SDS011;53098;47.658;8.578;2022-08-16T07:47:19;7.07;;;2.92;;
66298;SDS011;53098;47.658;8.578;2022-08-16T07:49:44;5.22;;;2.30;;
66298;SDS011;53098;47.658;8.578;2022-08-16T07:52:09;4.77;;;2.00;;
66298;SDS011;53098;47.658;8.578;2022-08-16T07:54:35;4.53;;;1.93;;
66298;SDS011;53098;47.658;8.578;2022-08-16T07:57:00;6.30;;;2.20;;
66298;SDS011;53098;47.658;8.578;2022-08-16T07:59:25;6.57;;;2.10;;
66298;SDS011;53098;47.658;8.578;2022-08-16T08:01:51;8.50;;;2.17;;
66298;SDS011;53098;47.658;8.578;2022-08-16T08:04:16;5.20;;;2.75;;
66298;SDS011;53098;47.658;8.578;2022-08-16T08:06:42;5.87;;;2.23;;
66298;SDS011;53098;47.658;8.578;2022-08-16T08:09:10;5.20;;;2.00;;
66298;SDS011;53098;47.658;8.578;2022-08-16T08:11:35;6.50;;;2.20;;
66298;SDS011;53098;47.658;8.578;2022-08-16T08:14:00;5.90;;;2.70;;
66298;SDS011;53098;47.658;8.578;2022-08-16T08:16:26;5.38;;;2.30;;
66298;SDS011;53098;47.658;8.578;2022-08-16T08:18:52;4.82;;;1.90;;
66298;SDS011;53098;47.658;8.578;2022-08-16T08:21:17;5.18;;;2.20;;
66298;SDS011;53098;47.658;8.578;2022-08-16T08:23:42;5.80;;;2.30;;
66298;SDS011;53098;47.658;8.578;2022-08-16T08:26:08;5.43;;;2.27;;
66298;SDS011;53098;47.658;8.578;2022-08-16T08:28:33;5.68;;;2.35;;
66298;SDS011;53098;47.658;8.578;2022-08-16T08:30:59;4.43;;;2.00;;
66298;SDS011;53098;47.658;8.578;2022-08-16T08:33:25;4.25;;;2.05;;
66298;SDS011;53098;47.658;8.578;2022-08-16T08:35:50;9.18;;;2.53;;
66298;SDS011;53098;47.658;8.578;2022-08-16T08:38:15;4.23;;;1.93;;
66298;SDS011;53098;47.658;8.578;2022-08-16T08:40:41;6.00;;;2.17;;
66298;SDS011;53098;47.658;8.578;2022-08-16T08:43:07;5.30;;;2.20;;
66298;SDS011;53098;47.658;8.578;2022-08-16T08:45:32;6.30;;;2.27;;
66298;SDS011;53098;47.658;8.578;2022-08-16T08:47:57;6.30;;;2.63;;
66298;SDS011;53098;47.658;8.578;2022-08-16T08:50:23;6.63;;;2.33;;
66298;SDS011;53098;47.658;8.578;2022-08-16T08:52:48;6.78;;;2.45;;
66298;SDS011;53098;47.658;8.578;2022-08-16T08:55:14;5.63;;;2.42;;
66298;SDS011;53098;47.658;8.578;2022-08-16T08:57:42;7.25;;;2.20;;
66298;SDS011;53098;47.658;8.578;2022-08-16T09:00:09;4.72;;;2.20;;
66298;SDS011;53098;47.658;8.578;2022-08-16T09:02:35;6.63;;;2.40;;
66298;SDS011;53098;47.658;8.578;2022-08-16T09:05:00;9.70;;;2.30;;
66298;SDS011;53098;47.658;8.578;2022-08-16T09:07:25;5.87;;;2.10;;
66298;SDS011;53098;47.658;8.578;2022-08-16T09:09:50;6.40;;;2.30;;
66298;SDS011;53098;47.658;8.578;2022-08-16T09:12:16;4.07;;;2.00;;
66298;SDS011;53098;47.658;8.578;2022-08-16T09:14:41;7.70;;;2.30;;
66298;SDS011;53098;47.658;8.578;2022-08-16T09:17:06;6.93;;;2.17;;
66298;SDS011;53098;47.658;8.578;2022-08-16T09:19:32;7.50;;;1.80;;
66298;SDS011;53098;47.658;8.578;2022-08-16T09:21:58;5.20;;;2.45;;
66298;SDS011;53098;47.658;8.578;2022-08-16T09:24:23;6.50;;;2.25;;
66298;SDS011;53098;47.658;8.578;2022-08-16T09:26:49;5.77;;;2.07;;
66298;SDS011;53098;47.658;8.578;2022-08-16T09:29:14;4.83;;;2.20;;
66298;SDS011;53098;47.658;8.578;2022-08-16T09:31:40;6.97;;;2.30;;
66298;SDS011;53098;47.658;8.578;2022-08-16T09:34:05;6.50;;;2.00;;
66298;SDS011;53098;47.658;8.578;2022-08-16T09:36:31;5.90;;;1.90;;
66298;SDS011;53098;47.658;8.578;2022-08-16T09:38:56;9.93;;;2.00;;
66298;SDS011;53098;47.658;8.578;2022-08-16T09:41:22;8.35;;;2.10;;
66298;SDS011;53098;47.658;8.578;2022-08-16T09:43:47;9.25;;;2.20;;
66298;SDS011;53098;47.658;8.578;2022-08-16T09:46:13;12.70;;;2.78;;
66298;SDS011;53098;47.658;8.578;2022-08-16T09:48:38;10.37;;;2.23;;
66298;SDS011;53098;47.658;8.578;2022-08-16T09:51:03;9.80;;;2.60;;
66298;SDS011;53098;47.658;8.578;2022-08-16T09:53:29;5.27;;;2.00;;
66298;SDS011;53098;47.658;8.578;2022-08-16T09:55:54;9.55;;;2.28;;
66298;SDS011;53098;47.658;8.578;2022-08-16T09:58:21;8.75;;;2.00;;
66298;SDS011;53098;47.658;8.578;2022-08-16T10:00:48;9.00;;;2.25;;
66298;SDS011;53098;47.658;8.578;2022-08-16T10:03:13;6.80;;;2.10;;
66298;SDS011;53098;47.658;8.578;2022-08-16T10:05:39;5.68;;;2.10;;
66298;SDS011;53098;47.658;8.578;2022-08-16T10:08:04;9.60;;;2.20;;
66298;SDS011;53098;47.658;8.578;2022-08-16T10:10:30;5.40;;;2.47;;
66298;SDS011;53098;47.658;8.578;2022-08-16T10:12:55;7.35;;;2.10;;
66298;SDS011;53098;47.658;8.578;2022-08-16T10:15:21;8.15;;;2.15;;
66298;SDS011;53098;47.658;8.578;2022-08-16T10:17:47;6.07;;;1.98;;
66298;SDS011;53098;47.658;8.578;2022-08-16T10:20:13;10.27;;;2.40;;
66298;SDS011;53098;47.658;8.578;2022-08-16T10:22:38;7.28;;;2.35;;
66298;SDS011;53098;47.658;8.578;2022-08-16T10:25:04;8.35;;;2.47;;
66298;SDS011;53098;47.658;8.578;2022-08-16T10:27:30;5.20;;;2.15;;
66298;SDS011;53098;47.658;8.578;2022-08-16T10:29:55;6.97;;;2.10;;
66298;SDS011;53098;47.658;8.578;2022-08-16T10:32:21;16.27;;;2.73;;
66298;SDS011;53098;47.658;8.578;2022-08-16T10:34:46;10.10;;;2.10;;
66298;SDS011;53098;47.658;8.578;2022-08-16T10:37:11;11.20;;;2.17;;
66298;SDS011;53098;47.658;8.578;2022-08-16T10:39:37;3.97;;;1.80;;
66298;SDS011;53098;47.658;8.578;2022-08-16T10:42:02;5.65;;;2.33;;
66298;SDS011;53098;47.658;8.578;2022-08-16T10:44:27;5.63;;;2.33;;
66298;SDS011;53098;47.658;8.578;2022-08-16T10:46:53;7.32;;;2.58;;
66298;SDS011;53098;47.658;8.578;2022-08-16T10:49:18;5.13;;;2.10;;
66298;SDS011;53098;47.658;8.578;2022-08-16T10:51:43;6.72;;;2.53;;
66298;SDS011;53098;47.658;8.578;2022-08-16T10:54:09;5.07;;;2.22;;
66298;SDS011;53098;47.658;8.578;2022-08-16T10:56:34;6.55;;;2.22;;
66298;SDS011;53098;47.658;8.578;2022-08-16T10:59:00;5.83;;;2.30;;
66298;SDS011;53098;47.658;8.578;2022-08-16T11:01:25;8.98;;;2.47;;
66298;SDS011;53098;47.658;8.578;2022-08-16T11:03:53;8.00;;;2.30;;
66298;SDS011;53098;47.658;8.578;2022-08-16T11:06:19;6.68;;;2.08;;
66298;SDS011;53098;47.658;8.578;2022-08-16T11:08:44;6.97;;;2.25;;
66298;SDS011;53098;47.658;8.578;2022-08-16T11:11:10;6.05;;;2.20;;
66298;SDS011;53098;47.658;8.578;2022-08-16T11:13:35;6.82;;;2.20;;
66298;SDS011;53098;47.658;8.578;2022-08-16T11:16:01;7.23;;;2.37;;
66298;SDS011;53098;47.658;8.578;2022-08-16T11:18:27;7.25;;;2.50;;
66298;SDS011;53098;47.658;8.578;2022-08-16T11:20:52;8.75;;;2.50;;
66298;SDS011;53098;47.658;8.578;2022-08-16T11:23:18;5.47;;;2.10;;
66298;SDS011;53098;47.658;8.578;2022-08-16T11:25:43;5.23;;;2.47;;
66298;SDS011;53098;47.658;8.578;2022-08-16T11:28:08;9.30;;;2.37;;
66298;SDS011;53098;47.658;8.578;2022-08-16T11:30:34;3.58;;;1.85;;
66298;SDS011;53098;47.658;8.578;2022-08-16T11:33:00;9.50;;;2.42;;
66298;SDS011;53098;47.658;8.578;2022-08-16T11:35:27;6.47;;;2.50;;
66298;SDS011;53098;47.658;8.578;2022-08-16T11:37:54;7.68;;;2.42;;
66298;SDS011;53098;47.658;8.578;2022-08-16T11:40:21;7.22;;;1.90;;
66298;SDS011;53098;47.658;8.578;2022-08-16T11:42:47;11.10;;;2.33;;
66298;SDS011;53098;47.658;8.578;2022-08-16T11:45:12;4.90;;;2.07;;
66298;SDS011;53098;47.658;8.578;2022-08-16T11:47:37;5.40;;;2.40;;
66298;SDS011;53098;47.658;8.578;2022-08-16T11:50:04;4.60;;;1.90;;
66298;SDS011;53098;47.658;8.578;2022-08-16T11:52:30;6.53;;;2.65;;
66298;SDS011;53098;47.658;8.578;2022-08-16T11:54:55;5.80;;;2.40;;
66298;SDS011;53098;47.658;8.578;2022-08-16T11:57:20;9.38;;;2.65;;
66298;SDS011;53098;47.658;8.578;2022-08-16T11:59:45;6.43;;;2.17;;
66298;SDS011;53098;47.658;8.578;2022-08-16T12:02:11;8.82;;;2.30;;
66298;SDS011;53098;47.658;8.578;2022-08-16T12:04:36;7.13;;;2.20;;
66298;SDS011;53098;47.658;8.578;2022-08-16T12:07:02;5.17;;;2.10;;
66298;SDS011;53098;47.658;8.578;2022-08-16T12:09:28;4.53;;;2.00;;
66298;SDS011;53098;47.658;8.578;2022-08-16T12:11:53;9.68;;;2.35;;
66298;SDS011;53098;47.658;8.578;2022-08-16T12:14:19;6.33;;;2.67;;
66298;SDS011;53098;47.658;8.578;2022-08-16T12:16:44;5.15;;;2.00;;
66298;SDS011;53098;47.658;8.578;2022-08-16T12:19:10;8.93;;;2.60;;
66298;SDS011;53098;47.658;8.578;2022-08-16T12:21:35;6.93;;;2.33;;
66298;SDS011;53098;47.658;8.578;2022-08-16T12:24:01;6.43;;;2.00;;
66298;SDS011;53098;47.658;8.578;2022-08-16T12:26:26;6.33;;;2.20;;
66298;SDS011;53098;47.658;8.578;2022-08-16T12:28:52;5.20;;;2.50;;
66298;SDS011;53098;47.658;8.578;2022-08-16T12:31:17;9.77;;;2.30;;
66298;SDS011;53098;47.658;8.578;2022-08-16T12:33:43;9.00;;;2.28;;
66298;SDS011;53098;47.658;8.578;2022-08-16T12:36:08;7.57;;;2.65;;
66298;SDS011;53098;47.658;8.578;2022-08-16T12:38:33;4.30;;;2.05;;
66298;SDS011;53098;47.658;8.578;2022-08-16T12:40:59;7.70;;;2.40;;
66298;SDS011;53098;47.658;8.578;2022-08-16T12:43:24;3.97;;;1.90;;
66298;SDS011;53098;47.658;8.578;2022-08-16T12:45:50;6.97;;;2.10;;
66298;SDS011;53098;47.658;8.578;2022-08-16T12:48:17;5.78;;;2.28;;
66298;SDS011;53098;47.658;8.578;2022-08-16T12:50:42;5.93;;;2.20;;
66298;SDS011;53098;47.658;8.578;2022-08-16T12:53:08;11.87;;;2.57;;
66298;SDS011;53098;47.658;8.578;2022-08-16T12:55:33;7.95;;;2.42;;
66298;SDS011;53098;47.658;8.578;2022-08-16T12:57:58;5.50;;;2.17;;
66298;SDS011;53098;47.658;8.578;2022-08-16T13:00:25;7.38;;;2.35;;
66298;SDS011;53098;47.658;8.578;2022-08-16T13:02:51;5.50;;;2.38;;
66298;SDS011;53098;47.658;8.578;2022-08-16T13:05:16;8.33;;;2.53;;
66298;SDS011;53098;47.658;8.578;2022-08-16T13:07:42;9.30;;;2.57;;
66298;SDS011;53098;47.658;8.578;2022-08-16T13:10:07;7.45;;;2.58;;
66298;SDS011;53098;47.658;8.578;2022-08-16T13:12:36;5.00;;;2.08;;
66298;SDS011;53098;47.658;8.578;2022-08-16T13:15:02;8.25;;;2.47;;
66298;SDS011;53098;47.658;8.578;2022-08-16T13:17:28;6.45;;;2.42;;
66298;SDS011;53098;47.658;8.578;2022-08-16T13:19:53;8.03;;;2.40;;
66298;SDS011;53098;47.658;8.578;2022-08-16T13:22:19;5.57;;;2.30;;
66298;SDS011;53098;47.658;8.578;2022-08-16T13:24:45;6.15;;;2.40;;
66298;SDS011;53098;47.658;8.578;2022-08-16T13:27:11;5.70;;;2.38;;
66298;SDS011;53098;47.658;8.578;2022-08-16T13:29:36;8.13;;;2.43;;
66298;SDS011;53098;47.658;8.578;2022-08-16T13:32:02;7.25;;;2.35;;
66298;SDS011;53098;47.658;8.578;2022-08-16T13:34:28;8.07;;;2.90;;
66298;SDS011;53098;47.658;8.578;2022-08-16T13:36:53;7.88;;;2.20;;
66298;SDS011;53098;47.658;8.578;2022-08-16T13:39:18;7.73;;;2.10;;
66298;SDS011;53098;47.658;8.578;2022-08-16T13:41:44;5.90;;;2.00;;
66298;SDS011;53098;47.658;8.578;2022-08-16T13:44:09;4.90;;;2.00;;
66298;SDS011;53098;47.658;8.578;2022-08-16T13:46:34;7.57;;;2.20;;
66298;SDS011;53098;47.658;8.578;2022-08-16T13:49:00;4.80;;;2.30;;
66298;SDS011;53098;47.658;8.578;2022-08-16T13:51:25;8.00;;;3.07;;
66298;SDS011;53098;47.658;8.578;2022-08-16T13:53:52;5.93;;;2.20;;
66298;SDS011;53098;47.658;8.578;2022-08-16T13:56:18;6.28;;;2.10;;
66298;SDS011;53098;47.658;8.578;2022-08-16T13:58:44;8.00;;;2.65;;
66298;SDS011;53098;47.658;8.578;2022-08-16T14:01:09;5.78;;;2.30;;
66298;SDS011;53098;47.658;8.578;2022-08-16T14:03:34;6.53;;;2.33;;
66298;SDS011;53098;47.658;8.578;2022-08-16T14:06:00;5.57;;;2.03;;
66298;SDS011;53098;47.658;8.578;2022-08-16T14:08:25;9.40;;;2.50;;
66298;SDS011;53098;47.658;8.578;2022-08-16T14:10:50;8.00;;;2.20;;
66298;SDS011;53098;47.658;8.578;2022-08-16T14:13:16;4.47;;;2.17;;
66298;SDS011;53098;47.658;8.578;2022-08-16T14:15:41;10.27;;;2.95;;
66298;SDS011;53098;47.658;8.578;2022-08-16T14:18:06;8.43;;;2.57;;
66298;SDS011;53098;47.658;8.578;2022-08-16T14:20:31;4.43;;;2.27;;
66298;SDS011;53098;47.658;8.578;2022-08-16T14:22:57;5.73;;;2.20;;
66298;SDS011;53098;47.658;8.578;2022-08-16T14:25:22;6.03;;;2.53;;
66298;SDS011;53098;47.658;8.578;2022-08-16T14:27:48;6.88;;;2.33;;
66298;SDS011;53098;47.658;8.578;2022-08-16T14:30:14;5.38;;;2.30;;
66298;SDS011;53098;47.658;8.578;2022-08-16T14:32:40;7.35;;;2.50;;
66298;SDS011;53098;47.658;8.578;2022-08-16T14:35:07;4.63;;;1.95;;
66298;SDS011;53098;47.658;8.578;2022-08-16T14:37:34;6.63;;;2.30;;
66298;SDS011;53098;47.658;8.578;2022-08-16T14:39:59;4.55;;;2.25;;
66298;SDS011;53098;47.658;8.578;2022-08-16T14:42:25;9.93;;;2.33;;
66298;SDS011;53098;47.658;8.578;2022-08-16T14:44:50;8.45;;;2.40;;
66298;SDS011;53098;47.658;8.578;2022-08-16T14:47:16;4.72;;;1.95;;